sensor_id;sensor_type;location;lat;lon;timestamp;pressure;altitude;pressure_sealevel;temperature;humidity
8573;BME280;4324;42.012;24.872;2023-03-17T00:00:46;99125.28;;;7.07;76.04
8573;BME280;4324;42.012;24.872;2023-03-17T00:03:19;99113.94;;;6.97;75.83
8573;BME280;4324;42.012;24.872;2023-03-17T00:05:47;99134.56;;;7.11;76.10
8573;BME280;4324;42.012;24.872;2023-03-17T00:08:18;99133.75;;;7.11;76.14
8573;BME280;4324;42.012;24.872;2023-03-17T00:10:46;99130.56;;;7.07;76.24
8573;BME280;4324;42.012;24.872;2023-03-17T00:13:13;99133.06;;;7.09;76.27
8573;BME280;4324;42.012;24.872;2023-03-17T00:15:40;99130.28;;;7.10;76.30
8573;BME280;4324;42.012;24.872;2023-03-17T00:18:10;99132.63;;;7.13;76.30
8573;BME280;4324;42.012;24.872;2023-03-17T00:20:41;99129.03;;;7.14;75.89
8573;BME280;4324;42.012;24.872;2023-03-17T00:23:13;99114.31;;;7.12;76.26
8573;BME280;4324;42.012;24.872;2023-03-17T00:25:41;99127.09;;;7.16;76.25
8573;BME280;4324;42.012;24.872;2023-03-17T00:30:40;99127.91;;;7.17;76.37
8573;BME280;4324;42.012;24.872;2023-03-17T00:33:09;99126.13;;;7.17;76.62
8573;BME280;4324;42.012;24.872;2023-03-17T00:35:36;99125.13;;;7.18;76.78
8573;BME280;4324;42.012;24.872;2023-03-17T00:38:10;99128.31;;;7.22;76.41
8573;BME280;4324;42.012;24.872;2023-03-17T00:40:40;99131.22;;;7.28;76.40
8573;BME280;4324;42.012;24.872;2023-03-17T00:43:07;99121.66;;;7.27;76.49
8573;BME280;4324;42.012;24.872;2023-03-17T00:45:35;99133.97;;;7.37;76.48
8573;BME280;4324;42.012;24.872;2023-03-17T00:48:02;99058.69;;;6.87;76.30
8573;BME280;4324;42.012;24.872;2023-03-17T00:50:29;99140.63;;;7.41;76.56
8573;BME280;4324;42.012;24.872;2023-03-17T00:52:56;99139.66;;;7.42;76.46
8573;BME280;4324;42.012;24.872;2023-03-17T00:55:25;99133.00;;;7.38;76.59
8573;BME280;4324;42.012;24.872;2023-03-17T00:57:52;99144.22;;;7.40;76.48
8573;BME280;4324;42.012;24.872;2023-03-17T01:00:23;99142.84;;;7.36;76.64
8573;BME280;4324;42.012;24.872;2023-03-17T01:02:52;99143.84;;;7.35;76.54
8573;BME280;4324;42.012;24.872;2023-03-17T01:05:20;99144.94;;;7.32;76.68
8573;BME280;4324;42.012;24.872;2023-03-17T01:07:50;99150.91;;;7.34;76.60
8573;BME280;4324;42.012;24.872;2023-03-17T01:10:20;99159.63;;;7.35;76.47
8573;BME280;4324;42.012;24.872;2023-03-17T01:12:50;99149.66;;;7.28;76.46
8573;BME280;4324;42.012;24.872;2023-03-17T01:15:18;99146.09;;;7.10;76.75
8573;BME280;4324;42.012;24.872;2023-03-17T01:17:47;99156.88;;;7.07;76.50
8573;BME280;4324;42.012;24.872;2023-03-17T01:20:21;99116.44;;;6.69;76.52
8573;BME280;4324;42.012;24.872;2023-03-17T01:22:49;99169.09;;;6.89;76.50
8573;BME280;4324;42.012;24.872;2023-03-17T01:25:17;99157.03;;;6.76;76.71
8573;BME280;4324;42.012;24.872;2023-03-17T01:27:45;99164.53;;;6.71;76.87
8573;BME280;4324;42.012;24.872;2023-03-17T01:30:22;99164.34;;;6.63;76.97
8573;BME280;4324;42.012;24.872;2023-03-17T01:32:50;99168.22;;;6.59;76.93
8573;BME280;4324;42.012;24.872;2023-03-17T01:35:18;99170.97;;;6.48;77.35
8573;BME280;4324;42.012;24.872;2023-03-17T01:37:45;99182.47;;;6.47;77.32
8573;BME280;4324;42.012;24.872;2023-03-17T01:40:15;99177.06;;;6.39;77.19
8573;BME280;4324;42.012;24.872;2023-03-17T01:42:44;99182.84;;;6.33;77.42
8573;BME280;4324;42.012;24.872;2023-03-17T01:48:19;99178.97;;;6.27;77.57
8573;BME280;4324;42.012;24.872;2023-03-17T01:50:47;99179.66;;;6.19;77.83
8573;BME280;4324;42.012;24.872;2023-03-17T01:53:15;99163.94;;;6.08;77.62
8573;BME280;4324;42.012;24.872;2023-03-17T01:55:44;99165.75;;;6.07;77.94
8573;BME280;4324;42.012;24.872;2023-03-17T01:58:12;99194.75;;;6.27;77.97
8573;BME280;4324;42.012;24.872;2023-03-17T02:00:41;99189.50;;;6.27;77.68
8573;BME280;4324;42.012;24.872;2023-03-17T02:03:12;99190.31;;;6.27;77.63
8573;BME280;4324;42.012;24.872;2023-03-17T02:05:42;99162.88;;;6.11;77.99
8573;BME280;4324;42.012;24.872;2023-03-17T02:08:10;99183.38;;;6.26;78.25
8573;BME280;4324;42.012;24.872;2023-03-17T02:10:39;99196.44;;;6.38;78.25
8573;BME280;4324;42.012;24.872;2023-03-17T02:13:07;99199.75;;;6.40;78.27
8573;BME280;4324;42.012;24.872;2023-03-17T02:15:37;99188.94;;;6.33;78.42
8573;BME280;4324;42.012;24.872;2023-03-17T02:18:05;99206.41;;;6.44;78.56
8573;BME280;4324;42.012;24.872;2023-03-17T02:23:42;99174.81;;;6.24;77.91
8573;BME280;4324;42.012;24.872;2023-03-17T02:26:10;99213.34;;;6.45;78.17
8573;BME280;4324;42.012;24.872;2023-03-17T02:28:37;99197.28;;;6.38;78.39
8573;BME280;4324;42.012;24.872;2023-03-17T02:31:04;99207.81;;;6.38;78.12
8573;BME280;4324;42.012;24.872;2023-03-17T02:33:32;99219.41;;;6.36;78.13
8573;BME280;4324;42.012;24.872;2023-03-17T02:35:59;99221.63;;;6.40;78.25
8573;BME280;4324;42.012;24.872;2023-03-17T02:38:26;99226.22;;;6.38;78.52
8573;BME280;4324;42.012;24.872;2023-03-17T02:40:55;99211.38;;;6.37;78.32
8573;BME280;4324;42.012;24.872;2023-03-17T02:43:22;99226.94;;;6.50;78.42
8573;BME280;4324;42.012;24.872;2023-03-17T02:45:49;99174.66;;;6.26;78.31
8573;BME280;4324;42.012;24.872;2023-03-17T02:48:16;99222.25;;;6.63;78.60
8573;BME280;4324;42.012;24.872;2023-03-17T02:50:43;99220.88;;;6.69;78.11
8573;BME280;4324;42.012;24.872;2023-03-17T02:53:11;99226.03;;;6.80;78.49
8573;BME280;4324;42.012;24.872;2023-03-17T02:55:38;99232.25;;;6.89;78.38
8573;BME280;4324;42.012;24.872;2023-03-17T02:58:07;99242.25;;;6.95;78.51
8573;BME280;4324;42.012;24.872;2023-03-17T03:00:34;99202.34;;;6.80;78.73
8573;BME280;4324;42.012;24.872;2023-03-17T03:03:01;99202.91;;;6.84;78.48
8573;BME280;4324;42.012;24.872;2023-03-17T03:05:27;99228.56;;;7.01;78.25
8573;BME280;4324;42.012;24.872;2023-03-17T03:07:54;99232.28;;;7.08;78.24
8573;BME280;4324;42.012;24.872;2023-03-17T03:10:21;99242.97;;;7.16;78.75
8573;BME280;4324;42.012;24.872;2023-03-17T03:12:48;99241.72;;;7.20;78.54
8573;BME280;4324;42.012;24.872;2023-03-17T03:15:17;99246.97;;;7.20;78.68
8573;BME280;4324;42.012;24.872;2023-03-17T03:17:45;99249.63;;;7.20;78.45
8573;BME280;4324;42.012;24.872;2023-03-17T03:20:12;99253.63;;;7.24;78.49
8573;BME280;4324;42.012;24.872;2023-03-17T03:22:39;99253.63;;;7.24;78.49
8573;BME280;4324;42.012;24.872;2023-03-17T03:25:06;99252.66;;;7.25;78.56
8573;BME280;4324;42.012;24.872;2023-03-17T03:27:34;99259.19;;;7.31;78.54
8573;BME280;4324;42.012;24.872;2023-03-17T03:30:01;99259.75;;;7.35;78.75
8573;BME280;4324;42.012;24.872;2023-03-17T03:32:29;99257.78;;;7.37;78.63
8573;BME280;4324;42.012;24.872;2023-03-17T03:34:56;99259.03;;;7.33;78.57
8573;BME280;4324;42.012;24.872;2023-03-17T03:37:23;99261.25;;;7.37;78.54
8573;BME280;4324;42.012;24.872;2023-03-17T03:39:50;99247.66;;;7.22;78.65
8573;BME280;4324;42.012;24.872;2023-03-17T03:42:17;99265.84;;;7.35;78.82
8573;BME280;4324;42.012;24.872;2023-03-17T03:44:44;99257.94;;;7.35;78.51
8573;BME280;4324;42.012;24.872;2023-03-17T03:47:11;99232.84;;;7.21;78.53
8573;BME280;4324;42.012;24.872;2023-03-17T03:49:40;99260.84;;;7.42;78.79
8573;BME280;4324;42.012;24.872;2023-03-17T03:52:06;99265.13;;;7.43;78.54
8573;BME280;4324;42.012;24.872;2023-03-17T03:54:33;99260.53;;;7.45;78.62
8573;BME280;4324;42.012;24.872;2023-03-17T03:57:00;99273.72;;;7.45;78.56
8573;BME280;4324;42.012;24.872;2023-03-17T03:59:27;99267.78;;;7.43;78.80
8573;BME280;4324;42.012;24.872;2023-03-17T04:01:55;99270.53;;;7.41;78.83
8573;BME280;4324;42.012;24.872;2023-03-17T04:04:22;99267.34;;;7.38;78.61
8573;BME280;4324;42.012;24.872;2023-03-17T04:06:50;99274.03;;;7.42;78.56
8573;BME280;4324;42.012;24.872;2023-03-17T04:09:17;99282.75;;;7.42;78.37
8573;BME280;4324;42.012;24.872;2023-03-17T04:11:44;99274.97;;;7.41;78.76
8573;BME280;4324;42.012;24.872;2023-03-17T04:14:11;99285.78;;;7.38;78.89
8573;BME280;4324;42.012;24.872;2023-03-17T04:16:38;99293.00;;;7.36;79.06
8573;BME280;4324;42.012;24.872;2023-03-17T04:19:05;99299.25;;;7.35;78.91
8573;BME280;4324;42.012;24.872;2023-03-17T04:21:33;99296.63;;;7.35;79.07
8573;BME280;4324;42.012;24.872;2023-03-17T04:24:02;99308.00;;;7.35;79.11
8573;BME280;4324;42.012;24.872;2023-03-17T04:26:29;99307.16;;;7.35;79.02
8573;BME280;4324;42.012;24.872;2023-03-17T04:28:56;99313.25;;;7.35;78.73
8573;BME280;4324;42.012;24.872;2023-03-17T04:31:24;99310.19;;;7.40;78.94
8573;BME280;4324;42.012;24.872;2023-03-17T04:33:51;99308.13;;;7.43;79.01
8573;BME280;4324;42.012;24.872;2023-03-17T04:36:19;99293.28;;;7.33;78.93
8573;BME280;4324;42.012;24.872;2023-03-17T04:38:46;99309.09;;;7.42;79.10
8573;BME280;4324;42.012;24.872;2023-03-17T04:41:15;99311.59;;;7.44;79.06
8573;BME280;4324;42.012;24.872;2023-03-17T04:43:42;99323.78;;;7.45;79.19
8573;BME280;4324;42.012;24.872;2023-03-17T04:46:09;99311.28;;;7.37;79.10
8573;BME280;4324;42.012;24.872;2023-03-17T04:48:36;99323.78;;;7.45;78.87
8573;BME280;4324;42.012;24.872;2023-03-17T04:51:03;99329.22;;;7.53;78.91
8573;BME280;4324;42.012;24.872;2023-03-17T04:53:30;99331.84;;;7.53;79.11
8573;BME280;4324;42.012;24.872;2023-03-17T04:55:57;99336.53;;;7.59;79.13
8573;BME280;4324;42.012;24.872;2023-03-17T04:58:26;99350.44;;;7.61;79.08
8573;BME280;4324;42.012;24.872;2023-03-17T05:00:53;99334.88;;;7.58;79.26
8573;BME280;4324;42.012;24.872;2023-03-17T05:03:20;99349.19;;;7.65;79.08
8573;BME280;4324;42.012;24.872;2023-03-17T05:05:50;99345.56;;;7.66;79.19
8573;BME280;4324;42.012;24.872;2023-03-17T05:08:56;99357.50;;;7.70;78.81
8573;BME280;4324;42.012;24.872;2023-03-17T05:15:15;99297.31;;;7.37;78.66
8573;BME280;4324;42.012;24.872;2023-03-17T05:17:49;99299.94;;;7.37;79.06
8573;BME280;4324;42.012;24.872;2023-03-17T05:20:29;99341.00;;;7.68;78.97
8573;BME280;4324;42.012;24.872;2023-03-17T05:23:01;99348.50;;;7.83;79.07
8573;BME280;4324;42.012;24.872;2023-03-17T05:25:28;99305.91;;;7.58;79.05
8573;BME280;4324;42.012;24.872;2023-03-17T05:27:55;99328.38;;;7.72;78.92
8573;BME280;4324;42.012;24.872;2023-03-17T05:30:24;99372.75;;;8.06;78.78
8573;BME280;4324;42.012;24.872;2023-03-17T05:32:51;99375.66;;;8.12;78.62
8573;BME280;4324;42.012;24.872;2023-03-17T05:35:18;99368.31;;;8.16;78.37
8573;BME280;4324;42.012;24.872;2023-03-17T05:37:45;99386.44;;;8.29;78.55
8573;BME280;4324;42.012;24.872;2023-03-17T05:40:15;99380.91;;;8.32;78.55
8573;BME280;4324;42.012;24.872;2023-03-17T05:42:42;99347.31;;;8.14;78.49
8573;BME280;4324;42.012;24.872;2023-03-17T05:45:10;99389.13;;;8.38;78.53
8573;BME280;4324;42.012;24.872;2023-03-17T05:47:39;99372.81;;;8.33;78.35
8573;BME280;4324;42.012;24.872;2023-03-17T05:50:07;99374.22;;;8.47;78.04
8573;BME280;4324;42.012;24.872;2023-03-17T05:52:36;99379.75;;;8.54;77.81
8573;BME280;4324;42.012;24.872;2023-03-17T05:55:04;99388.34;;;8.65;77.53
8573;BME280;4324;42.012;24.872;2023-03-17T05:57:32;99374.44;;;8.63;77.62
8573;BME280;4324;42.012;24.872;2023-03-17T05:59:59;99399.94;;;8.82;77.75
8573;BME280;4324;42.012;24.872;2023-03-17T06:02:26;99393.53;;;8.85;77.63
8573;BME280;4324;42.012;24.872;2023-03-17T06:04:55;99378.81;;;8.82;77.35
8573;BME280;4324;42.012;24.872;2023-03-17T06:07:22;99407.38;;;8.96;77.11
8573;BME280;4324;42.012;24.872;2023-03-17T06:09:49;99413.75;;;9.04;77.01
8573;BME280;4324;42.012;24.872;2023-03-17T06:12:16;99409.69;;;9.09;76.92
8573;BME280;4324;42.012;24.872;2023-03-17T06:14:43;99410.38;;;9.11;76.82
8573;BME280;4324;42.012;24.872;2023-03-17T06:17:10;99413.31;;;9.08;76.70
8573;BME280;4324;42.012;24.872;2023-03-17T06:19:49;99406.72;;;8.94;76.81
8573;BME280;4324;42.012;24.872;2023-03-17T06:22:20;99421.41;;;8.97;76.60
8573;BME280;4324;42.012;24.872;2023-03-17T06:24:47;99414.38;;;8.88;76.53
8573;BME280;4324;42.012;24.872;2023-03-17T06:27:14;99403.84;;;8.78;76.58
8573;BME280;4324;42.012;24.872;2023-03-17T06:29:41;99420.38;;;8.80;76.22
8573;BME280;4324;42.012;24.872;2023-03-17T06:32:11;99419.84;;;8.77;76.26
8573;BME280;4324;42.012;24.872;2023-03-17T06:34:38;99434.97;;;8.75;76.40
8573;BME280;4324;42.012;24.872;2023-03-17T06:37:06;99433.59;;;8.70;75.96
8573;BME280;4324;42.012;24.872;2023-03-17T06:39:34;99425.31;;;8.56;75.66
8573;BME280;4324;42.012;24.872;2023-03-17T06:42:01;99447.81;;;8.60;75.34
8573;BME280;4324;42.012;24.872;2023-03-17T06:44:28;99435.91;;;8.46;75.44
8573;BME280;4324;42.012;24.872;2023-03-17T06:46:56;99447.56;;;8.53;75.48
8573;BME280;4324;42.012;24.872;2023-03-17T06:49:23;99446.31;;;8.57;75.75
8573;BME280;4324;42.012;24.872;2023-03-17T06:51:50;99430.88;;;8.53;75.41
8573;BME280;4324;42.012;24.872;2023-03-17T06:54:21;99444.88;;;8.72;75.32
8573;BME280;4324;42.012;24.872;2023-03-17T06:56:52;99444.28;;;8.79;74.95
8573;BME280;4324;42.012;24.872;2023-03-17T06:59:19;99452.44;;;8.95;74.92
8573;BME280;4324;42.012;24.872;2023-03-17T07:01:47;99430.22;;;8.88;74.69
8573;BME280;4324;42.012;24.872;2023-03-17T07:04:16;99457.34;;;9.17;74.79
8573;BME280;4324;42.012;24.872;2023-03-17T07:06:48;99461.16;;;9.33;74.45
8573;BME280;4324;42.012;24.872;2023-03-17T07:09:18;99450.84;;;9.39;73.96
8573;BME280;4324;42.012;24.872;2023-03-17T07:11:49;99467.84;;;9.64;73.73
8573;BME280;4324;42.012;24.872;2023-03-17T07:14:18;99454.69;;;9.73;73.60
8573;BME280;4324;42.012;24.872;2023-03-17T07:16:45;99433.81;;;9.69;73.44
8573;BME280;4324;42.012;24.872;2023-03-17T07:19:12;99443.06;;;9.83;73.75
8573;BME280;4324;42.012;24.872;2023-03-17T07:21:41;99457.03;;;9.93;73.08
8573;BME280;4324;42.012;24.872;2023-03-17T07:24:09;99447.00;;;9.79;72.75
8573;BME280;4324;42.012;24.872;2023-03-17T07:26:37;99472.22;;;9.91;72.42
8573;BME280;4324;42.012;24.872;2023-03-17T07:32:03;99351.41;;;9.38;72.73
8573;BME280;4324;42.012;24.872;2023-03-17T07:34:52;99467.25;;;10.24;72.80
8573;BME280;4324;42.012;24.872;2023-03-17T07:37:19;99452.19;;;10.25;72.28
8573;BME280;4324;42.012;24.872;2023-03-17T07:39:46;99458.69;;;10.48;71.82
8573;BME280;4324;42.012;24.872;2023-03-17T07:42:13;99449.97;;;10.56;71.81
8573;BME280;4324;42.012;24.872;2023-03-17T07:44:42;99400.03;;;10.35;71.86
8573;BME280;4324;42.012;24.872;2023-03-17T07:47:11;99459.91;;;10.80;71.67
8573;BME280;4324;42.012;24.872;2023-03-17T07:49:39;99439.84;;;10.77;70.76
8573;BME280;4324;42.012;24.872;2023-03-17T07:52:07;99428.78;;;10.82;69.72
8573;BME280;4324;42.012;24.872;2023-03-17T07:54:34;99434.81;;;10.92;69.27
8573;BME280;4324;42.012;24.872;2023-03-17T07:57:02;99436.16;;;10.96;69.43
8573;BME280;4324;42.012;24.872;2023-03-17T07:59:29;99451.19;;;11.22;69.87
8573;BME280;4324;42.012;24.872;2023-03-17T08:01:56;99462.19;;;11.35;70.17
8573;BME280;4324;42.012;24.872;2023-03-17T08:04:27;99448.97;;;11.43;69.44
8573;BME280;4324;42.012;24.872;2023-03-17T08:06:53;99463.59;;;11.63;69.18
8573;BME280;4324;42.012;24.872;2023-03-17T08:09:22;99465.47;;;11.79;68.84
8573;BME280;4324;42.012;24.872;2023-03-17T08:11:50;99461.38;;;11.93;68.31
8573;BME280;4324;42.012;24.872;2023-03-17T08:14:17;99452.09;;;11.97;68.12
8573;BME280;4324;42.012;24.872;2023-03-17T08:16:44;99463.19;;;12.01;67.24
8573;BME280;4324;42.012;24.872;2023-03-17T08:19:11;99450.44;;;11.96;66.40
8573;BME280;4324;42.012;24.872;2023-03-17T08:21:40;99459.91;;;11.99;65.36
8573;BME280;4324;42.012;24.872;2023-03-17T08:24:07;99462.88;;;11.96;65.81
8573;BME280;4324;42.012;24.872;2023-03-17T08:26:34;99464.19;;;11.92;66.03
8573;BME280;4324;42.012;24.872;2023-03-17T08:29:02;99457.88;;;11.84;65.99
8573;BME280;4324;42.012;24.872;2023-03-17T08:31:29;99451.22;;;11.80;65.44
8573;BME280;4324;42.012;24.872;2023-03-17T08:33:58;99449.91;;;11.84;65.64
8573;BME280;4324;42.012;24.872;2023-03-17T08:36:27;99452.44;;;11.94;65.08
8573;BME280;4324;42.012;24.872;2023-03-17T08:38:56;99435.50;;;12.03;65.76
8573;BME280;4324;42.012;24.872;2023-03-17T08:41:24;99440.00;;;12.19;66.02
8573;BME280;4324;42.012;24.872;2023-03-17T08:43:52;99426.75;;;12.27;65.96
8573;BME280;4324;42.012;24.872;2023-03-17T08:46:22;99434.88;;;12.42;65.50
8573;BME280;4324;42.012;24.872;2023-03-17T08:48:53;99407.94;;;12.45;65.38
8573;BME280;4324;42.012;24.872;2023-03-17T08:51:21;99411.72;;;12.67;65.45
8573;BME280;4324;42.012;24.872;2023-03-17T08:53:49;99448.72;;;12.93;65.76
8573;BME280;4324;42.012;24.872;2023-03-17T08:56:17;99441.63;;;12.69;64.54
8573;BME280;4324;42.012;24.872;2023-03-17T08:58:48;99436.81;;;12.56;64.21
8573;BME280;4324;42.012;24.872;2023-03-17T09:01:17;99444.31;;;12.61;63.40
8573;BME280;4324;42.012;24.872;2023-03-17T09:03:46;99446.44;;;12.66;63.65
8573;BME280;4324;42.012;24.872;2023-03-17T09:06:14;99422.56;;;12.57;64.50
8573;BME280;4324;42.012;24.872;2023-03-17T09:08:42;99438.97;;;12.69;63.18
8573;BME280;4324;42.012;24.872;2023-03-17T09:11:13;99435.00;;;12.49;62.17
8573;BME280;4324;42.012;24.872;2023-03-17T09:13:44;99438.66;;;12.23;61.59
8573;BME280;4324;42.012;24.872;2023-03-17T09:16:18;99444.78;;;11.91;60.54
8573;BME280;4324;42.012;24.872;2023-03-17T09:18:45;99444.69;;;11.67;60.42
8573;BME280;4324;42.012;24.872;2023-03-17T09:21:13;99448.75;;;11.36;59.83
8573;BME280;4324;42.012;24.872;2023-03-17T09:23:42;99446.34;;;11.09;59.86
8573;BME280;4324;42.012;24.872;2023-03-17T09:26:10;99443.03;;;10.81;59.73
8573;BME280;4324;42.012;24.872;2023-03-17T09:28:41;99411.34;;;10.45;60.34
8573;BME280;4324;42.012;24.872;2023-03-17T09:31:11;99449.97;;;10.56;60.13
8573;BME280;4324;42.012;24.872;2023-03-17T09:33:38;99435.50;;;10.42;60.68
8573;BME280;4324;42.012;24.872;2023-03-17T09:36:06;99448.31;;;10.55;61.94
8573;BME280;4324;42.012;24.872;2023-03-17T09:38:34;99434.31;;;10.62;61.79
8573;BME280;4324;42.012;24.872;2023-03-17T09:41:24;99438.00;;;10.70;61.36
8573;BME280;4324;42.012;24.872;2023-03-17T09:44:05;99435.81;;;10.91;60.58
8573;BME280;4324;42.012;24.872;2023-03-17T09:46:43;99427.94;;;11.07;61.00
8573;BME280;4324;42.012;24.872;2023-03-17T09:49:18;99346.88;;;10.88;61.35
8573;BME280;4324;42.012;24.872;2023-03-17T09:51:48;99433.09;;;11.68;61.29
8573;BME280;4324;42.012;24.872;2023-03-17T09:54:23;99413.25;;;11.80;60.72
8573;BME280;4324;42.012;24.872;2023-03-17T09:56:56;99440.66;;;11.97;60.01
8573;BME280;4324;42.012;24.872;2023-03-17T09:59:32;99436.97;;;11.90;59.04
8573;BME280;4324;42.012;24.872;2023-03-17T10:02:01;99426.22;;;11.91;59.55
8573;BME280;4324;42.012;24.872;2023-03-17T10:04:28;99433.19;;;12.08;60.48
8573;BME280;4324;42.012;24.872;2023-03-17T10:06:59;99433.72;;;12.28;59.46
8573;BME280;4324;42.012;24.872;2023-03-17T10:09:33;99399.34;;;12.27;59.75
8573;BME280;4324;42.012;24.872;2023-03-17T10:12:07;99426.53;;;12.62;61.79
8573;BME280;4324;42.012;24.872;2023-03-17T10:14:49;99424.03;;;12.68;62.96
8573;BME280;4324;42.012;24.872;2023-03-17T10:17:24;99353.88;;;12.22;62.85
8573;BME280;4324;42.012;24.872;2023-03-17T10:19:56;99419.88;;;12.74;61.22
8573;BME280;4324;42.012;24.872;2023-03-17T10:22:28;99405.94;;;12.55;60.72
8573;BME280;4324;42.012;24.872;2023-03-17T10:25:00;99409.63;;;12.54;60.60
8573;BME280;4324;42.012;24.872;2023-03-17T10:27:33;99411.44;;;12.46;59.88
8573;BME280;4324;42.012;24.872;2023-03-17T10:30:02;99403.31;;;12.23;58.67
8573;BME280;4324;42.012;24.872;2023-03-17T10:32:34;99414.28;;;12.11;57.86
8573;BME280;4324;42.012;24.872;2023-03-17T10:35:14;99421.25;;;12.04;58.20
8573;BME280;4324;42.012;24.872;2023-03-17T10:37:42;99410.31;;;11.99;58.32
8573;BME280;4324;42.012;24.872;2023-03-17T10:40:19;99417.44;;;12.15;58.42
8573;BME280;4324;42.012;24.872;2023-03-17T10:43:28;99399.34;;;12.10;58.08
8573;BME280;4324;42.012;24.872;2023-03-17T10:45:59;99408.31;;;12.09;57.90
8573;BME280;4324;42.012;24.872;2023-03-17T10:48:29;99408.97;;;12.03;58.27
8573;BME280;4324;42.012;24.872;2023-03-17T10:50:57;99405.16;;;11.98;58.66
8573;BME280;4324;42.012;24.872;2023-03-17T10:53:25;99413.97;;;12.06;58.11
8573;BME280;4324;42.012;24.872;2023-03-17T10:55:56;99403.00;;;11.93;57.46
8573;BME280;4324;42.012;24.872;2023-03-17T10:58:35;99402.16;;;11.84;57.90
8573;BME280;4324;42.012;24.872;2023-03-17T11:01:05;99407.28;;;11.86;57.88
8573;BME280;4324;42.012;24.872;2023-03-17T11:03:37;99406.66;;;11.92;58.43
8573;BME280;4324;42.012;24.872;2023-03-17T11:06:07;99410.94;;;11.93;57.91
8573;BME280;4324;42.012;24.872;2023-03-17T11:08:38;99395.84;;;11.94;58.17
8573;BME280;4324;42.012;24.872;2023-03-17T11:11:08;99407.63;;;12.16;60.35
8573;BME280;4324;42.012;24.872;2023-03-17T11:13:36;99379.44;;;12.15;60.12
8573;BME280;4324;42.012;24.872;2023-03-17T11:16:19;99398.19;;;12.29;60.26
8573;BME280;4324;42.012;24.872;2023-03-17T11:18:56;99365.34;;;12.14;59.21
8573;BME280;4324;42.012;24.872;2023-03-17T11:21:31;99402.66;;;12.37;59.21
8573;BME280;4324;42.012;24.872;2023-03-17T11:24:04;99393.38;;;12.33;58.81
8573;BME280;4324;42.012;24.872;2023-03-17T11:26:50;99389.38;;;12.37;60.32
8573;BME280;4324;42.012;24.872;2023-03-17T11:29:25;99393.34;;;12.49;59.65
8573;BME280;4324;42.012;24.872;2023-03-17T11:31:58;99389.03;;;12.48;58.90
8573;BME280;4324;42.012;24.872;2023-03-17T11:34:48;99384.41;;;12.42;60.05
8573;BME280;4324;42.012;24.872;2023-03-17T11:37:26;99391.19;;;12.45;59.86
8573;BME280;4324;42.012;24.872;2023-03-17T11:40:02;99383.72;;;12.40;60.38
8573;BME280;4324;42.012;24.872;2023-03-17T11:42:37;99387.41;;;12.39;59.30
8573;BME280;4324;42.012;24.872;2023-03-17T11:45:16;99384.38;;;12.50;58.80
8573;BME280;4324;42.012;24.872;2023-03-17T11:47:59;99389.66;;;12.67;58.00
8573;BME280;4324;42.012;24.872;2023-03-17T11:50:34;99372.09;;;12.57;57.68
8573;BME280;4324;42.012;24.872;2023-03-17T11:53:17;99370.09;;;12.51;58.15
8573;BME280;4324;42.012;24.872;2023-03-17T11:55:47;99361.81;;;12.46;57.88
8573;BME280;4324;42.012;24.872;2023-03-17T11:58:26;99378.53;;;12.63;57.15
8573;BME280;4324;42.012;24.872;2023-03-17T12:00:59;99364.41;;;12.71;56.85
8573;BME280;4324;42.012;24.872;2023-03-17T12:03:30;99377.63;;;12.95;56.68
8573;BME280;4324;42.012;24.872;2023-03-17T12:06:13;99296.06;;;12.48;56.78
8573;BME280;4324;42.012;24.872;2023-03-17T12:08:49;99379.94;;;12.90;56.55
8573;BME280;4324;42.012;24.872;2023-03-17T12:11:20;99376.00;;;12.78;56.02
8573;BME280;4324;42.012;24.872;2023-03-17T12:13:52;99349.19;;;12.48;55.67
8573;BME280;4324;42.012;24.872;2023-03-17T12:16:30;99381.72;;;12.50;55.82
8573;BME280;4324;42.012;24.872;2023-03-17T12:19:03;99371.44;;;12.47;56.91
8573;BME280;4324;42.012;24.872;2023-03-17T12:21:37;99371.25;;;12.57;56.78
8573;BME280;4324;42.012;24.872;2023-03-17T12:24:10;99371.88;;;12.67;57.29
8573;BME280;4324;42.012;24.872;2023-03-17T12:26:46;99336.41;;;12.44;57.35
8573;BME280;4324;42.012;24.872;2023-03-17T12:29:18;99367.09;;;12.63;56.97
8573;BME280;4324;42.012;24.872;2023-03-17T12:31:52;99359.78;;;12.65;56.95
8573;BME280;4324;42.012;24.872;2023-03-17T12:34:25;99363.38;;;12.72;56.93
8573;BME280;4324;42.012;24.872;2023-03-17T12:36:55;99371.03;;;12.75;56.80
8573;BME280;4324;42.012;24.872;2023-03-17T12:39:25;99373.03;;;12.73;56.61
8573;BME280;4324;42.012;24.872;2023-03-17T12:42:14;99343.69;;;12.58;56.87
8573;BME280;4324;42.012;24.872;2023-03-17T12:44:59;99364.88;;;12.74;57.13
8573;BME280;4324;42.012;24.872;2023-03-17T12:47:57;99354.09;;;12.68;57.32
8573;BME280;4324;42.012;24.872;2023-03-17T12:50:43;99362.75;;;12.70;57.38
8573;BME280;4324;42.012;24.872;2023-03-17T12:53:23;99361.63;;;12.56;56.26
8573;BME280;4324;42.012;24.872;2023-03-17T12:56:09;99370.44;;;12.48;55.94
8573;BME280;4324;42.012;24.872;2023-03-17T12:58:39;99366.47;;;12.44;55.62
8573;BME280;4324;42.012;24.872;2023-03-17T13:01:15;99369.44;;;12.41;56.13
8573;BME280;4324;42.012;24.872;2023-03-17T13:03:55;99362.66;;;12.30;55.89
8573;BME280;4324;42.012;24.872;2023-03-17T13:06:23;99369.28;;;12.34;56.04
8573;BME280;4324;42.012;24.872;2023-03-17T13:08:52;99369.13;;;12.36;55.47
8573;BME280;4324;42.012;24.872;2023-03-17T13:11:26;99357.03;;;12.25;55.00
8573;BME280;4324;42.012;24.872;2023-03-17T13:13:56;99359.34;;;12.28;55.12
8573;BME280;4324;42.012;24.872;2023-03-17T13:16:53;99368.47;;;12.42;55.89
8573;BME280;4324;42.012;24.872;2023-03-17T13:23:13;99367.09;;;12.63;57.18
8573;BME280;4324;42.012;24.872;2023-03-17T13:25:50;99364.94;;;12.58;57.84
8573;BME280;4324;42.012;24.872;2023-03-17T13:28:26;99357.34;;;12.47;57.50
8573;BME280;4324;42.012;24.872;2023-03-17T13:31:07;99354.84;;;12.45;57.49
8573;BME280;4324;42.012;24.872;2023-03-17T13:33:39;99370.44;;;12.48;57.09
8573;BME280;4324;42.012;24.872;2023-03-17T13:36:23;99371.59;;;12.46;58.14
8573;BME280;4324;42.012;24.872;2023-03-17T13:39:33;99354.19;;;12.27;57.21
8573;BME280;4324;42.012;24.872;2023-03-17T13:42:32;99372.94;;;12.42;57.57
8573;BME280;4324;42.012;24.872;2023-03-17T13:45:22;99376.06;;;12.45;57.46
8573;BME280;4324;42.012;24.872;2023-03-17T13:47:50;99365.47;;;12.37;57.26
8573;BME280;4324;42.012;24.872;2023-03-17T13:50:21;99368.78;;;12.31;57.11
8573;BME280;4324;42.012;24.872;2023-03-17T13:52:53;99375.28;;;12.28;56.17
8573;BME280;4324;42.012;24.872;2023-03-17T13:55:34;99365.84;;;12.18;55.90